Time;durP1;ratioP1;P1;durP2;ratioP2;P2;SDS_P1;SDS_P2;PMS_P1;PMS_P2;Temp;Humidity;BMP_temperature;BMP_pressure;BME280_temperature;BME280_humidity;BME280_pressure;Samples;Min_cycle;Max_cycle;Signal;HPM_P1;HPM_P2
2023/01/13 00:01:45;;;;;;;15.40;5.40;;;10.30;99.90;;;;;;5050366;28;20788;-62
2023/01/13 00:04:12;;;;;;;43.10;10.60;;;10.30;99.90;;;;;;5055993;28;20482;-61
2023/01/13 00:06:39;;;;;;;29.17;6.80;;;;;;;;;;5067425;27;20964;-62
2023/01/13 00:09:07;;;;;;;24.23;7.37;;;10.20;99.90;;;;;;5073325;27;20487;-62
2023/01/13 00:11:33;;;;;;;24.20;5.10;;;12.00;99.90;;;;;;5072352;27;21534;-62
2023/01/13 00:14:00;;;;;;;25.67;6.50;;;10.30;99.90;;;;;;5048437;28;20570;-61
2023/01/13 00:16:27;;;;;;;34.17;7.43;;;10.30;99.90;;;;;;5064207;28;20485;-62
2023/01/13 00:18:53;;;;;;;27.40;6.10;;;10.30;99.90;;;;;;5062985;27;20490;-61
2023/01/13 00:21:21;;;;;;;30.90;8.43;;;10.00;99.90;;;;;;5076438;28;20796;-62
2023/01/13 00:23:48;;;;;;;36.60;8.43;;;10.00;99.90;;;;;;5048913;28;20476;-61
2023/01/13 00:26:18;;;;;;;51.50;13.10;;;10.10;99.90;;;;;;5041487;28;21057;-62
2023/01/13 00:28:45;;;;;;;24.80;6.93;;;10.00;99.90;;;;;;5061512;27;20555;-62
2023/01/13 00:31:13;;;;;;;45.43;11.20;;;10.10;99.90;;;;;;5063610;27;20488;-62
2023/01/13 00:33:41;;;;;;;24.37;5.33;;;10.00;99.90;;;;;;5063779;28;20493;-63
2023/01/13 00:36:11;;;;;;;29.43;8.60;;;10.10;99.90;;;;;;5066743;27;21115;-62
2023/01/13 00:38:38;;;;;;;16.43;5.37;;;10.00;99.90;;;;;;5077899;28;20495;-62
2023/01/13 00:41:06;;;;;;;21.00;5.60;;;10.20;99.90;;;;;;5048924;28;20558;-62
2023/01/13 00:43:35;;;;;;;32.97;6.83;;;10.20;99.90;;;;;;5052069;28;20987;-62
2023/01/13 00:46:02;;;;;;;35.37;7.97;;;10.20;99.90;;;;;;5073517;28;20483;-61
2023/01/13 00:48:29;;;;;;;37.40;10.10;;;10.20;99.90;;;;;;5039427;28;21002;-62
2023/01/13 00:50:57;;;;;;;30.63;7.10;;;;;;;;;;5059732;28;20479;-61
2023/01/13 00:53:24;;;;;;;35.93;7.07;;;;;;;;;;5056817;28;20489;-61
2023/01/13 00:55:59;;;;;;;23.63;6.60;;;10.10;99.90;;;;;;5065502;28;20911;-61
2023/01/13 00:58:26;;;;;;;25.70;7.50;;;;;;;;;;5040070;28;20975;-61
2023/01/13 01:00:55;;;;;;;19.37;4.80;;;;;;;;;;5050127;28;20474;-62
2023/01/13 01:03:21;;;;;;;32.13;9.83;;;10.20;99.90;;;;;;5071178;28;20464;-61
2023/01/13 01:05:48;;;;;;;34.03;7.87;;;10.10;99.90;;;;;;5058335;28;20911;-62
2023/01/13 01:08:15;;;;;;;29.53;11.23;;;10.20;99.90;;;;;;5069682;28;21062;-61
2023/01/13 01:10:42;;;;;;;21.93;4.17;;;;;;;;;;5035133;28;20480;-61
2023/01/13 01:13:10;;;;;;;24.30;6.20;;;;;;;;;;5079350;27;20484;-61
2023/01/13 01:15:40;;;;;;;22.03;5.73;;;;;;;;;;5077038;27;20476;-61
2023/01/13 01:18:08;;;;;;;25.07;8.07;;;10.10;99.90;;;;;;5063459;28;21271;-61
2023/01/13 01:20:36;;;;;;;19.23;4.90;;;;;;;;;;5077656;27;20527;-61
2023/01/13 01:23:04;;;;;;;19.67;5.57;;;10.20;99.90;;;;;;5077093;28;20478;-61
2023/01/13 01:25:32;;;;;;;20.00;6.07;;;10.30;99.90;;;;;;5070143;28;20478;-61
2023/01/13 01:27:59;;;;;;;16.80;4.30;;;10.20;99.90;;;;;;5049637;28;20479;-61
2023/01/13 01:30:26;;;;;;;20.90;5.57;;;10.20;99.90;;;;;;5064263;28;20945;-61
2023/01/13 01:32:53;;;;;;;16.20;5.00;;;10.20;99.90;;;;;;5062904;28;21179;-61
2023/01/13 01:35:21;;;;;;;36.33;10.00;;;12.20;99.90;;;;;;5074975;28;20484;-61
2023/01/13 01:37:48;;;;;;;15.17;4.70;;;10.10;99.90;;;;;;5051650;28;20529;-61
2023/01/13 01:40:15;;;;;;;36.27;9.57;;;;;;;;;;5041125;28;20472;-62
2023/01/13 01:45:28;;;;;;;22.07;5.80;;;10.20;99.90;;;;;;5084421;27;20753;-61
2023/01/13 01:47:58;;;;;;;21.00;4.97;;;10.00;99.90;;;;;;5079297;28;20489;-61
2023/01/13 01:50:28;;;;;;;26.30;6.70;;;10.00;99.90;;;;;;5045444;28;20487;-61
2023/01/13 01:52:58;;;;;;;33.47;6.67;;;10.00;99.90;;;;;;5075615;27;20570;-62
2023/01/13 01:55:29;;;;;;;41.47;7.40;;;10.00;99.90;;;;;;5073413;28;20481;-61
2023/01/13 01:58:01;;;;;;;31.97;6.47;;;10.10;99.90;;;;;;5051066;28;20489;-62
2023/01/13 02:00:29;;;;;;;30.67;6.50;;;10.20;99.90;;;;;;5060139;28;20494;-61
2023/01/13 02:02:56;;;;;;;36.07;8.30;;;10.10;99.90;;;;;;5047822;28;20479;-61
2023/01/13 02:05:23;;;;;;;38.87;8.43;;;10.10;99.90;;;;;;5059628;28;20840;-61
2023/01/13 02:07:55;;;;;;;40.13;6.23;;;10.00;99.90;;;;;;5055649;28;20471;-61
2023/01/13 02:10:26;;;;;;;34.67;8.60;;;10.00;99.90;;;;;;5039375;28;20475;-61
2023/01/13 02:12:53;;;;;;;28.93;7.90;;;;;;;;;;5071567;28;20906;-61
2023/01/13 02:15:23;;;;;;;35.00;8.47;;;10.00;99.90;;;;;;5075483;28;20476;-61
2023/01/13 02:18:14;;;;;;;25.07;6.90;;;;;;;;;;5061620;28;21237;-61
2023/01/13 02:20:54;;;;;;;20.00;5.20;;;9.80;99.90;;;;;;5032512;28;21123;-62
2023/01/13 02:27:04;;;;;;;27.67;4.80;;;;;;;;;;5050421;28;20486;-62
2023/01/13 02:32:45;;;;;;;21.30;5.10;;;9.90;99.90;;;;;;5053172;28;20506;-62
2023/01/13 02:35:14;;;;;;;36.60;7.93;;;;;;;;;;5069439;28;20482;-62
2023/01/13 02:37:43;;;;;;;26.37;5.37;;;9.90;99.90;;;;;;5063411;28;20918;-62
2023/01/13 02:40:12;;;;;;;28.97;9.20;;;;;;;;;;5061319;28;20479;-62
2023/01/13 02:45:32;;;;;;;39.23;9.10;;;9.90;99.90;;;;;;5030082;28;21006;-61
2023/01/13 02:48:01;;;;;;;19.73;6.70;;;9.80;99.90;;;;;;5048202;28;20487;-61
2023/01/13 02:50:35;;;;;;;22.47;4.83;;;9.90;99.90;;;;;;5052315;28;20483;-62
2023/01/13 02:53:07;;;;;;;21.43;4.57;;;9.90;99.90;;;;;;5037266;28;20971;-62
2023/01/13 02:55:37;;;;;;;18.57;4.60;;;10.00;99.90;;;;;;5054946;28;20506;-62
2023/01/13 02:58:07;;;;;;;14.13;4.40;;;10.00;99.90;;;;;;5043130;28;20480;-62
2023/01/13 03:00:36;;;;;;;26.93;6.93;;;9.90;99.90;;;;;;5039940;28;20566;-62
2023/01/13 03:03:03;;;;;;;21.10;6.50;;;9.80;99.90;;;;;;5056693;28;21295;-62
2023/01/13 03:05:32;;;;;;;15.60;5.20;;;10.00;99.90;;;;;;4779830;28;7863447;-62
2023/01/13 03:08:06;;;;;;;18.70;5.87;;;;;;;;;;5052627;28;20249;-62
2023/01/13 03:10:38;;;;;;;22.03;5.30;;;;;;;;;;5055886;28;20483;-62
2023/01/13 03:13:17;;;;;;;23.53;5.23;;;10.00;99.90;;;;;;5050146;28;20502;-62
2023/01/13 03:15:54;;;;;;;14.13;4.97;;;10.10;99.90;;;;;;5049894;28;20588;-62
2023/01/13 03:18:33;;;;;;;28.13;6.83;;;10.10;99.90;;;;;;5043209;28;20623;-62
2023/01/13 03:21:05;;;;;;;19.77;5.50;;;10.00;99.90;;;;;;5064379;28;20855;-62
2023/01/13 03:23:40;;;;;;;24.37;4.87;;;9.90;99.90;;;;;;5069991;28;20949;-62
2023/01/13 03:26:12;;;;;;;26.87;8.03;;;10.00;99.90;;;;;;5059633;28;21013;-62
2023/01/13 03:28:42;;;;;;;20.43;4.77;;;9.90;99.90;;;;;;5062773;28;20483;-61
2023/01/13 03:31:14;;;;;;;28.63;8.20;;;9.90;99.90;;;;;;5059088;28;20477;-62
2023/01/13 03:33:45;;;;;;;12.40;3.83;;;10.00;99.90;;;;;;5053385;28;20479;-62
2023/01/13 03:36:14;;;;;;;25.77;6.60;;;10.00;99.90;;;;;;5038109;28;20492;-62
2023/01/13 03:38:44;;;;;;;16.43;5.80;;;10.00;99.90;;;;;;5075932;28;20482;-62
2023/01/13 03:41:17;;;;;;;28.47;9.67;;;9.90;99.90;;;;;;5054314;28;20499;-62
2023/01/13 03:46:42;;;;;;;28.37;4.57;;;9.80;99.90;;;;;;5078794;28;21156;-62
2023/01/13 03:49:12;;;;;;;24.57;6.23;;;10.00;99.90;;;;;;5046416;28;20856;-61
2023/01/13 03:51:40;;;;;;;16.33;4.60;;;;;;;;;;5046328;28;20512;-61
2023/01/13 03:54:11;;;;;;;21.23;5.17;;;10.00;99.90;;;;;;5069417;28;20534;-62
2023/01/13 03:56:40;;;;;;;17.17;4.67;;;;;;;;;;5051197;28;20777;-62
2023/01/13 03:59:08;;;;;;;20.90;5.80;;;;;;;;;;5059642;28;20482;-62
2023/01/13 04:01:45;;;;;;;27.33;5.87;;;9.90;99.90;;;;;;5074472;28;20866;-63
2023/01/13 04:04:18;;;;;;;35.43;8.47;;;10.00;99.90;;;;;;5075232;28;20593;-62
2023/01/13 04:06:50;;;;;;;16.83;4.40;;;10.10;99.90;;;;;;5031848;28;20474;-63
2023/01/13 04:09:22;;;;;;;29.80;8.70;;;10.10;99.90;;;;;;5058793;28;20475;-62
2023/01/13 04:11:55;;;;;;;19.60;4.60;;;10.10;99.90;;;;;;5031457;28;20475;-62
2023/01/13 04:14:23;;;;;;;32.47;8.97;;;;;;;;;;5048904;28;20474;-62
2023/01/13 04:16:52;;;;;;;26.43;6.63;;;10.20;99.90;;;;;;5044996;28;20537;-62
2023/01/13 04:19:18;;;;;;;31.73;8.60;;;10.20;99.90;;;;;;5060844;28;20904;-62
2023/01/13 04:21:45;;;;;;;15.80;5.40;;;;;;;;;;5060274;28;20477;-61
2023/01/13 04:24:12;;;;;;;29.20;9.97;;;10.10;99.90;;;;;;5076426;28;20516;-62
2023/01/13 04:26:39;;;;;;;18.47;4.73;;;10.00;99.90;;;;;;5059963;28;20552;-61
2023/01/13 04:29:06;;;;;;;25.57;6.57;;;10.20;99.90;;;;;;5076118;28;20492;-61
2023/01/13 04:31:33;;;;;;;20.80;6.23;;;;;;;;;;5063214;28;20885;-62
2023/01/13 04:34:01;;;;;;;25.37;6.67;;;;;;;;;;5053862;28;20487;-62
2023/01/13 04:36:28;;;;;;;25.63;5.40;;;10.20;99.90;;;;;;5051455;28;20470;-62
2023/01/13 04:38:55;;;;;;;18.70;4.40;;;;;;;;;;5056628;28;20490;-62
2023/01/13 04:41:22;;;;;;;24.20;6.97;;;10.20;99.90;;;;;;5066393;28;20468;-62
2023/01/13 04:43:48;;;;;;;24.63;5.50;;;10.20;99.90;;;;;;5051833;28;20943;-61
2023/01/13 04:46:15;;;;;;;38.53;12.03;;;10.20;99.90;;;;;;5045894;28;21380;-61
2023/01/13 04:48:42;;;;;;;16.63;3.70;;;;;;;;;;5065756;28;20483;-62
2023/01/13 04:51:10;;;;;;;21.67;5.60;;;10.20;99.90;;;;;;5048227;28;20487;-62
2023/01/13 04:53:37;;;;;;;16.73;5.00;;;;;;;;;;5076536;28;21150;-62
2023/01/13 04:56:04;;;;;;;31.90;8.63;;;;;;;;;;5048806;28;20475;-62
2023/01/13 04:58:31;;;;;;;25.70;5.30;;;;;;;;;;5051971;28;20990;-62
2023/01/13 05:00:58;;;;;;;25.53;6.10;;;10.10;99.90;;;;;;5046410;28;20493;-61
2023/01/13 05:03:25;;;;;;;20.03;5.30;;;10.30;99.90;;;;;;5049303;28;21216;-61
2023/01/13 05:05:52;;;;;;;13.40;4.27;;;10.40;99.90;;;;;;5062393;28;20481;-61
2023/01/13 05:08:20;;;;;;;24.83;8.60;;;;;;;;;;5058370;28;21036;-62
2023/01/13 05:10:47;;;;;;;21.33;5.17;;;10.30;99.90;;;;;;5065310;28;21012;-61
2023/01/13 05:18:45;;;;;;;18.10;4.30;;;10.20;99.90;;;;;;5040995;28;20501;-61
2023/01/13 05:26:38;;;;;;;20.73;4.57;;;;;;;;;;5070232;28;20496;-62
2023/01/13 05:29:05;;;;;;;23.83;5.63;;;10.10;99.90;;;;;;5063042;28;20484;-61
2023/01/13 05:31:31;;;;;;;17.80;4.20;;;10.10;99.90;;;;;;5056854;28;20471;-62
2023/01/13 05:33:58;;;;;;;27.83;6.70;;;10.10;99.90;;;;;;5060170;28;20481;-62
2023/01/13 05:36:25;;;;;;;19.60;6.50;;;;;;;;;;5061749;28;20484;-62
2023/01/13 05:38:52;;;;;;;21.00;5.73;;;;;;;;;;5049316;28;20479;-62
2023/01/13 05:44:04;;;;;;;20.57;5.70;;;10.00;99.90;;;;;;5044955;28;20483;-62
2023/01/13 05:46:31;;;;;;;22.17;5.63;;;10.10;99.90;;;;;;5047559;28;20490;-62
2023/01/13 05:48:58;;;;;;;26.00;5.60;;;10.20;99.90;;;;;;5052863;28;20537;-62
2023/01/13 05:51:25;;;;;;;26.33;5.83;;;10.30;99.90;;;;;;5048027;28;20481;-61
2023/01/13 05:53:52;;;;;;;21.20;4.57;;;10.40;99.90;;;;;;5078882;28;20496;-62
2023/01/13 05:56:20;;;;;;;39.03;9.37;;;10.30;99.90;;;;;;5058050;28;20854;-63
2023/01/13 05:58:47;;;;;;;14.13;4.27;;;;;;;;;;5055382;28;20537;-63
2023/01/13 06:01:14;;;;;;;39.73;10.23;;;;;;;;;;5073741;28;20484;-63
2023/01/13 06:03:41;;;;;;;20.97;3.53;;;;;;;;;;5056252;28;20491;-62
2023/01/13 06:06:08;;;;;;;24.37;7.43;;;10.30;99.90;;;;;;5052796;28;20940;-62
2023/01/13 06:08:34;;;;;;;13.47;3.70;;;10.30;99.90;;;;;;5054630;28;20486;-62
2023/01/13 06:11:01;;;;;;;18.50;4.77;;;;;;;;;;5058904;28;20490;-62
2023/01/13 06:13:29;;;;;;;14.80;3.90;;;10.10;99.90;;;;;;5055705;28;20934;-62
2023/01/13 06:15:57;;;;;;;16.03;5.30;;;10.00;99.90;;;;;;5057592;28;20479;-61
2023/01/13 06:18:24;;;;;;;25.27;6.50;;;9.90;99.90;;;;;;5057413;28;20494;-62
2023/01/13 06:20:51;;;;;;;21.13;4.03;;;;;;;;;;5054405;28;20493;-63
2023/01/13 06:23:18;;;;;;;31.67;7.77;;;;;;;;;;5081078;28;20830;-62
2023/01/13 06:25:51;;;;;;;22.77;4.73;;;9.80;99.90;;;;;;5054739;28;20698;-62
2023/01/13 06:28:18;;;;;;;19.03;6.20;;;9.80;99.90;;;;;;5056285;28;21058;-61
2023/01/13 06:30:48;;;;;;;18.43;4.40;;;;;;;;;;5076774;28;20481;-61
2023/01/13 06:33:17;;;;;;;28.33;9.47;;;9.70;99.90;;;;;;5057951;28;20881;-62
2023/01/13 06:35:48;;;;;;;17.97;4.50;;;9.60;99.90;;;;;;5053574;28;20635;-62
2023/01/13 06:38:19;;;;;;;32.77;8.90;;;9.50;99.90;;;;;;5057857;28;20544;-61
2023/01/13 06:40:45;;;;;;;19.70;4.80;;;9.50;99.90;;;;;;5073305;28;20478;-61
2023/01/13 06:43:14;;;;;;;31.43;10.37;;;9.50;99.90;;;;;;5051058;28;20984;-62
2023/01/13 06:45:42;;;;;;;17.43;4.30;;;9.50;99.90;;;;;;5076678;28;20476;-61
2023/01/13 06:48:10;;;;;;;26.67;6.47;;;9.40;99.90;;;;;;5055159;28;20497;-61
2023/01/13 06:50:37;;;;;;;17.50;4.30;;;;;;;;;;5075047;28;20486;-62
2023/01/13 06:53:04;;;;;;;24.50;5.20;;;12.60;99.90;;;;;;5055339;28;21264;-62
2023/01/13 06:55:31;;;;;;;29.43;5.73;;;9.40;99.90;;;;;;5074708;28;20482;-62
2023/01/13 06:57:58;;;;;;;19.17;5.40;;;9.50;99.90;;;;;;5065200;28;20481;-62
2023/01/13 07:00:26;;;;;;;30.67;7.53;;;9.50;99.90;;;;;;5055444;28;21007;-62
2023/01/13 07:02:53;;;;;;;18.73;4.67;;;9.40;99.90;;;;;;5040372;28;20474;-62
2023/01/13 07:05:21;;;;;;;33.17;8.10;;;9.50;99.90;;;;;;5060066;28;20486;-61
2023/01/13 07:07:49;;;;;;;24.90;4.50;;;9.50;99.90;;;;;;5061604;28;20485;-61
2023/01/13 07:10:20;;;;;;;37.90;9.13;;;9.40;99.90;;;;;;5059009;28;20477;-62
2023/01/13 07:15:34;;;;;;;16.90;3.13;;;9.50;99.90;;;;;;5058537;28;20500;-61
2023/01/13 07:18:02;;;;;;;21.07;5.10;;;9.40;99.90;;;;;;5065503;28;20478;-61
2023/01/13 07:20:30;;;;;;;29.07;6.00;;;9.40;99.90;;;;;;5064900;28;20470;-61
2023/01/13 07:22:57;;;;;;;24.70;5.07;;;9.30;99.90;;;;;;5083131;28;20816;-62
2023/01/13 07:25:24;;;;;;;28.37;7.13;;;9.20;99.90;;;;;;5051383;28;20952;-61
2023/01/13 07:27:51;;;;;;;25.60;4.80;;;9.30;99.90;;;;;;5042748;28;20484;-61
2023/01/13 07:30:18;;;;;;;25.93;5.83;;;;;;;;;;5076695;28;20487;-62
2023/01/13 07:32:45;;;;;;;27.73;4.20;;;;;;;;;;5044765;28;20536;-61
2023/01/13 07:35:12;;;;;;;25.60;4.77;;;9.40;99.90;;;;;;5049962;28;20973;-62
2023/01/13 07:37:40;;;;;;;24.43;4.17;;;;;;;;;;5064353;28;20999;-61
2023/01/13 07:40:08;;;;;;;26.20;5.57;;;9.50;99.90;;;;;;5064870;28;20486;-62
2023/01/13 07:45:23;;;;;;;32.47;8.93;;;9.40;99.90;;;;;;5039686;28;20882;-61
2023/01/13 07:47:52;;;;;;;32.70;6.07;;;9.40;99.90;;;;;;5047441;28;20483;-62
2023/01/13 07:50:21;;;;;;;33.83;8.20;;;;;;;;;;5057679;28;20903;-62
2023/01/13 07:52:49;;;;;;;23.50;5.07;;;9.50;99.90;;;;;;5058949;28;20572;-61
2023/01/13 07:55:16;;;;;;;34.53;9.30;;;9.50;99.90;;;;;;5071070;28;20487;-62
2023/01/13 07:57:43;;;;;;;30.73;4.80;;;9.40;99.90;;;;;;5044625;28;20491;-61
2023/01/13 08:00:11;;;;;;;40.83;8.77;;;9.50;99.90;;;;;;5049699;28;20832;-62
2023/01/13 08:02:38;;;;;;;32.27;6.40;;;;;;;;;;5053814;28;20906;-61
2023/01/13 08:05:06;;;;;;;21.47;4.53;;;6.70;99.90;;;;;;5048665;28;20484;-62
2023/01/13 08:07:35;;;;;;;16.10;4.20;;;9.60;99.90;;;;;;5052145;28;20820;-62
2023/01/13 08:10:04;;;;;;;24.73;5.33;;;9.60;99.90;;;;;;5068881;28;20481;-62
2023/01/13 08:15:15;;;;;;;32.57;9.13;;;9.70;99.90;;;;;;5054775;28;20564;-61
2023/01/13 08:17:42;;;;;;;24.00;5.23;;;9.50;99.90;;;;;;5068886;28;20519;-61
2023/01/13 08:20:10;;;;;;;27.73;7.57;;;9.50;99.90;;;;;;5056369;28;20494;-62
2023/01/13 08:22:37;;;;;;;22.10;5.23;;;9.60;99.90;;;;;;5052280;28;20489;-61
2023/01/13 08:25:06;;;;;;;26.13;6.57;;;9.70;99.90;;;;;;5074304;28;20584;-62
2023/01/13 08:27:33;;;;;;;27.23;5.60;;;9.60;99.90;;;;;;5063034;28;20482;-61
2023/01/13 08:30:00;;;;;;;28.43;4.73;;;9.70;99.90;;;;;;5056005;28;20558;-61
2023/01/13 08:32:26;;;;;;;21.50;5.03;;;9.80;99.90;;;;;;5039280;28;20480;-61
2023/01/13 08:34:53;;;;;;;30.60;5.23;;;9.70;99.90;;;;;;5082209;28;21028;-61
2023/01/13 08:37:20;;;;;;;39.27;9.03;;;;;;;;;;5040888;28;20514;-61
2023/01/13 08:39:47;;;;;;;16.90;4.50;;;9.70;99.90;;;;;;5034612;28;20493;-62
2023/01/13 08:42:15;;;;;;;44.13;10.90;;;9.90;99.90;;;;;;5072271;28;20998;-61
2023/01/13 08:44:41;;;;;;;21.07;3.73;;;9.90;99.90;;;;;;5043711;28;20490;-62
2023/01/13 08:47:08;;;;;;;33.13;7.23;;;10.00;99.90;;;;;;5067047;28;20515;-61
2023/01/13 08:49:35;;;;;;;16.10;3.43;;;10.10;99.90;;;;;;5055873;28;21004;-61
2023/01/13 08:52:01;;;;;;;17.40;4.43;;;10.20;99.90;;;;;;5064278;28;21259;-62
2023/01/13 08:54:28;;;;;;;25.70;6.00;;;;;;;;;;5068788;28;20474;-61
2023/01/13 08:56:55;;;;;;;25.20;6.27;;;10.20;99.90;;;;;;5035240;28;21456;-61
2023/01/13 08:59:23;;;;;;;37.47;8.77;;;10.20;99.90;;;;;;5072321;28;20491;-61
2023/01/13 09:01:50;;;;;;;32.73;6.17;;;10.20;99.90;;;;;;5040857;28;20510;-61
2023/01/13 09:04:18;;;;;;;39.37;10.90;;;10.30;99.90;;;;;;5080032;28;20818;-61
2023/01/13 09:06:45;;;;;;;25.20;5.30;;;;;;;;;;5048131;28;21084;-62
2023/01/13 09:09:13;;;;;;;34.27;8.57;;;10.20;99.90;;;;;;5041020;28;20987;-61
2023/01/13 09:14:31;;;;;;;23.57;5.90;;;10.10;99.90;;;;;;5033738;28;20527;-62
2023/01/13 09:16:58;;;;;;;29.30;6.30;;;10.20;99.90;;;;;;5073546;28;20536;-61
2023/01/13 09:19:25;;;;;;;26.67;6.53;;;10.10;99.90;;;;;;5046694;28;20475;-62
2023/01/13 09:21:52;;;;;;;22.93;4.67;;;10.00;99.90;;;;;;5049003;28;20646;-60
2023/01/13 09:24:19;;;;;;;40.03;9.60;;;;;;;;;;5047862;28;20471;-62
2023/01/13 09:26:46;;;;;;;25.60;5.30;;;10.10;99.90;;;;;;5043531;28;20829;-61
2023/01/13 09:29:13;;;;;;;23.10;6.37;;;10.20;99.90;;;;;;5064887;28;20522;-61
2023/01/13 09:31:42;;;;;;;22.40;4.73;;;10.20;99.90;;;;;;5048651;28;20489;-62
2023/01/13 09:36:57;;;;;;;24.27;5.03;;;10.30;99.90;;;;;;5070959;28;20504;-61
2023/01/13 09:39:24;;;;;;;33.63;6.30;;;10.40;99.90;;;;;;5052034;28;20483;-60
2023/01/13 09:44:46;;;;;;;20.50;6.43;;;10.40;99.90;;;;;;5051325;28;20961;-62
2023/01/13 09:47:23;;;;;;;31.30;8.00;;;10.50;99.90;;;;;;5065014;28;20473;-62
2023/01/13 09:49:50;;;;;;;24.73;5.77;;;10.50;99.90;;;;;;5058971;28;20469;-62
2023/01/13 09:52:19;;;;;;;34.73;7.83;;;10.50;99.90;;;;;;5056406;28;20483;-62
2023/01/13 09:54:51;;;;;;;23.20;4.53;;;10.50;99.90;;;;;;5060244;28;20489;-62
2023/01/13 09:57:19;;;;;;;40.87;8.40;;;;;;;;;;5066451;28;20999;-62
2023/01/13 09:59:47;;;;;;;19.33;3.93;;;10.50;99.90;;;;;;5076250;28;20490;-61
2023/01/13 10:02:27;;;;;;;43.03;10.60;;;;;;;;;;5055256;28;20529;-61
2023/01/13 10:05:04;;;;;;;33.50;6.77;;;;;;;;;;5055897;28;20616;-62
2023/01/13 10:07:33;;;;;;;24.27;5.20;;;;;;;;;;5070272;28;20495;-61
2023/01/13 10:10:02;;;;;;;34.00;5.73;;;10.40;99.90;;;;;;5046874;28;20930;-62
2023/01/13 10:15:17;;;;;;;53.30;12.03;;;10.40;99.90;;;;;;5040700;28;21109;-61
2023/01/13 10:17:50;;;;;;;23.33;5.20;;;10.50;99.90;;;;;;5045652;28;20850;-61
2023/01/13 10:20:21;;;;;;;46.50;10.33;;;10.60;99.90;;;;;;5058714;28;20493;-61
2023/01/13 10:22:59;;;;;;;27.07;5.40;;;10.70;99.90;;;;;;5066040;28;20922;-62
2023/01/13 10:25:34;;;;;;;35.33;6.13;;;10.80;99.90;;;;;;5051509;28;20496;-62
2023/01/13 10:28:03;;;;;;;23.93;5.70;;;;;;;;;;5063756;28;20847;-60
2023/01/13 10:30:37;;;;;;;29.17;5.60;;;10.70;99.90;;;;;;5081760;28;20479;-61
2023/01/13 10:33:11;;;;;;;28.87;5.73;;;10.70;99.90;;;;;;5056456;28;20469;-61
2023/01/13 10:35:55;;;;;;;25.00;6.23;;;;;;;;;;5068389;28;20481;-61
2023/01/13 10:38:26;;;;;;;33.13;8.53;;;10.60;99.90;;;;;;5039919;28;20483;-61
2023/01/13 10:40:54;;;;;;;34.57;5.97;;;10.70;99.90;;;;;;5059183;28;20487;-61
2023/01/13 10:43:22;;;;;;;50.20;10.20;;;10.60;99.90;;;;;;5070645;28;20485;-62
2023/01/13 10:46:04;;;;;;;30.80;6.63;;;10.70;99.90;;;;;;5038609;28;20974;-62
2023/01/13 10:48:40;;;;;;;20.70;4.30;;;;;;;;;;5064632;28;20973;-61
2023/01/13 10:51:21;;;;;;;28.00;7.20;;;10.70;99.90;;;;;;5035830;28;20879;-61
2023/01/13 10:53:55;;;;;;;22.33;5.47;;;10.50;99.90;;;;;;5066801;28;20616;-61
2023/01/13 10:56:24;;;;;;;37.73;8.70;;;10.50;99.90;;;;;;5068351;28;20573;-61
2023/01/13 10:58:51;;;;;;;40.40;6.20;;;10.60;99.90;;;;;;5049876;28;20929;-61
2023/01/13 11:01:24;;;;;;;41.70;9.00;;;10.70;99.90;;;;;;5077710;28;20488;-61
2023/01/13 11:03:53;;;;;;;20.63;5.53;;;10.60;99.90;;;;;;5069849;28;20474;-61
2023/01/13 11:06:23;;;;;;;44.90;9.93;;;10.70;99.90;;;;;;5045773;28;20493;-61
2023/01/13 11:08:51;;;;;;;26.10;6.00;;;;;;;;;;5084881;28;20578;-61
2023/01/13 11:11:43;;;;;;;29.87;8.70;;;10.80;99.90;;;;;;5060462;28;20488;-61
2023/01/13 11:17:08;;;;;;;27.33;5.50;;;10.80;99.90;;;;;;5069450;28;20492;-62
2023/01/13 11:19:41;;;;;;;28.90;8.07;;;10.80;99.90;;;;;;5077403;28;20481;-61
2023/01/13 11:22:14;;;;;;;27.67;6.30;;;10.80;99.90;;;;;;5047448;28;20497;-61
2023/01/13 11:24:46;;;;;;;17.80;5.03;;;11.00;99.90;;;;;;5062900;28;21268;-61
2023/01/13 11:27:16;;;;;;;34.10;9.50;;;11.00;99.90;;;;;;5044402;28;20490;-62
2023/01/13 11:29:53;;;;;;;25.03;5.30;;;11.00;99.90;;;;;;5047313;28;20524;-62
2023/01/13 11:32:23;;;;;;;36.40;8.77;;;11.40;99.90;;;;;;5037122;28;20493;-61
2023/01/13 11:34:56;;;;;;;27.47;5.53;;;11.40;99.90;;;;;;5071082;28;20930;-62
2023/01/13 11:37:26;;;;;;;44.17;9.87;;;11.70;99.90;;;;;;5044603;28;20487;-62
2023/01/13 11:39:57;;;;;;;28.50;8.07;;;12.00;99.90;;;;;;5054592;28;20510;-62
2023/01/13 11:42:27;;;;;;;25.23;5.07;;;11.90;99.50;;;;;;5066470;28;20504;-62
2023/01/13 11:45:03;;;;;;;32.00;6.23;;;12.00;99.90;;;;;;5072505;28;20558;-62
2023/01/13 11:47:31;;;;;;;55.23;8.33;;;;;;;;;;5052563;28;20896;-62
2023/01/13 11:49:59;;;;;;;24.07;5.30;;;12.10;99.70;;;;;;5054841;28;20530;-62
2023/01/13 11:52:39;;;;;;;21.73;5.43;;;11.90;99.40;;;;;;5073043;28;20483;-62
2023/01/13 11:55:19;;;;;;;34.83;7.07;;;12.00;99.90;;;;;;5052408;28;20476;-62
2023/01/13 11:58:05;;;;;;;21.63;5.90;;;11.80;99.50;;;;;;5066076;28;20475;-62
2023/01/13 12:01:09;;;;;;;22.57;5.10;;;11.90;99.50;;;;;;5040048;28;20882;-61
2023/01/13 12:03:40;;;;;;;28.00;5.80;;;;;;;;;;5027228;28;20486;-62
2023/01/13 12:06:23;;;;;;;35.53;8.80;;;;;;;;;;5047076;28;20485;-62
2023/01/13 12:09:00;;;;;;;27.27;5.53;;;;;;;;;;5049355;28;20850;-62
2023/01/13 12:12:17;;;;;;;28.77;7.23;;;12.00;98.50;;;;;;5061245;28;20888;-61
2023/01/13 12:14:24;;;;;;;29.97;9.10;;;;;;;;;;5061519;28;20485;-62
2023/01/13 12:16:51;;;;;;;25.37;5.27;;;12.20;99.00;;;;;;5066612;28;20474;-62
2023/01/13 12:19:20;;;;;;;24.70;8.40;;;;;;;;;;5066951;28;20494;-61
2023/01/13 12:22:08;;;;;;;20.57;4.13;;;12.30;99.00;;;;;;5069681;28;20494;-62
2023/01/13 12:24:40;;;;;;;28.07;6.10;;;12.20;98.30;;;;;;5046189;28;20491;-62
2023/01/13 12:27:12;;;;;;;29.93;5.67;;;;;;;;;;5038482;28;20472;-62
2023/01/13 12:29:39;;;;;;;18.20;4.23;;;12.00;97.80;;;;;;5051262;28;20490;-62
2023/01/13 12:32:10;;;;;;;22.00;5.90;;;12.10;98.30;;;;;;5044991;28;20473;-61
2023/01/13 12:34:50;;;;;;;17.03;5.60;;;12.20;98.20;;;;;;5048339;28;20863;-62
2023/01/13 12:37:26;;;;;;;35.37;10.30;;;12.30;98.90;;;;;;5055892;28;20473;-61
2023/01/13 12:40:04;;;;;;;17.23;4.50;;;12.10;98.50;;;;;;5038455;28;20484;-62
2023/01/13 12:45:27;;;;;;;35.60;7.30;;;11.50;98.20;;;;;;5061996;28;20853;-62
2023/01/13 12:47:54;;;;;;;21.83;6.33;;;11.40;98.60;;;;;;5042365;28;20495;-61
2023/01/13 12:50:40;;;;;;;34.63;9.37;;;11.30;99.10;;;;;;5069527;28;20556;-61
2023/01/13 12:53:37;;;;;;;21.80;6.40;;;11.10;99.80;;;;;;5055232;28;20627;-61
2023/01/13 12:56:37;;;;;;;32.87;8.90;;;;;;;;;;5046189;28;20510;-61
2023/01/13 12:59:37;;;;;;;23.33;5.33;;;11.00;99.90;;;;;;5036182;28;20480;-61
2023/01/13 13:02:37;;;;;;;19.80;4.10;;;;;;;;;;5027156;28;21034;-61
2023/01/13 13:05:43;;;;;;;13.17;4.10;;;11.20;99.80;;;;;;4956135;28;20998;-61
2023/01/13 13:08:18;;;;;;;32.07;8.97;;;11.20;99.50;;;;;;4965437;28;20485;-61
2023/01/13 13:11:00;;;;;;;18.07;4.37;;;11.20;99.40;;;;;;5045764;28;20493;-61
2023/01/13 13:13:44;;;;;;;20.90;4.37;;;11.20;99.60;;;;;;5071693;28;20493;-61
2023/01/13 13:16:50;;;;;;;35.00;10.00;;;11.40;99.60;;;;;;5069457;28;20481;-61
2023/01/13 13:19:36;;;;;;;26.50;8.40;;;;;;;;;;5059565;28;20484;-61
2023/01/13 13:22:37;;;;;;;26.93;4.90;;;11.30;99.00;;;;;;5061886;28;20485;-61
2023/01/13 13:25:24;;;;;;;23.73;6.10;;;11.10;98.80;;;;;;5053098;28;20487;-62
2023/01/13 13:28:04;;;;;;;18.30;4.73;;;10.90;98.80;;;;;;5071084;28;20485;-61
2023/01/13 13:30:35;;;;;;;23.30;6.13;;;10.90;99.40;;;;;;5073540;28;20500;-62
2023/01/13 13:33:21;;;;;;;21.63;5.70;;;10.70;99.90;;;;;;5050312;28;21009;-61
2023/01/13 13:36:02;;;;;;;28.80;5.50;;;10.60;99.80;;;;;;5072155;28;20478;-62
2023/01/13 13:47:10;;;;;;;21.33;5.13;;;10.40;99.90;;;;;;5054085;28;20481;-62
2023/01/13 13:49:40;;;;;;;27.63;8.43;;;;;;;;;;5055916;28;20485;-62
2023/01/13 13:52:14;;;;;;;23.43;5.40;;;10.60;99.90;;;;;;5065249;28;20482;-61
2023/01/13 13:54:43;;;;;;;26.73;5.33;;;10.40;99.20;;;;;;5047887;28;20983;-61
2023/01/13 13:57:17;;;;;;;29.30;8.57;;;10.30;98.30;;;;;;5051894;28;20469;-62
2023/01/13 13:59:45;;;;;;;24.77;4.67;;;;;;;;;;5068946;28;21132;-61
2023/01/13 14:02:17;;;;;;;30.73;7.03;;;;;;;;;;5066188;28;21357;-61
2023/01/13 14:04:45;;;;;;;27.17;4.93;;;;;;;;;;5058276;28;20490;-61
2023/01/13 14:07:19;;;;;;;39.67;9.17;;;10.40;98.90;;;;;;5040971;28;21006;-62
2023/01/13 14:09:49;;;;;;;33.77;7.57;;;10.40;99.10;;;;;;5049903;28;20485;-61
2023/01/13 14:12:18;;;;;;;44.57;10.90;;;;;;;;;;5065760;28;20630;-62
2023/01/13 14:14:48;;;;;;;27.63;6.67;;;10.50;99.40;;;;;;5043731;28;20565;-61
2023/01/13 14:17:20;;;;;;;41.90;10.33;;;10.50;99.00;;;;;;5063746;28;20674;-62
2023/01/13 14:19:51;;;;;;;23.20;4.63;;;;;;;;;;5070041;28;20549;-62
2023/01/13 14:22:18;;;;;;;30.57;7.90;;;10.60;99.20;;;;;;5071922;28;20473;-62
2023/01/13 14:24:54;;;;;;;21.43;5.67;;;10.60;99.50;;;;;;5057867;28;20484;-61